sensor_id;sensor_type;location;lat;lon;timestamp;P1;durP1;ratioP1;P2;durP2;ratioP2
16813;SDS011;8524;57.650;11.926;2023-01-19T00:02:01;3.40;;;2.53;;
16813;SDS011;8524;57.650;11.926;2023-01-19T00:04:30;6.17;;;2.63;;
16813;SDS011;8524;57.650;11.926;2023-01-19T00:06:57;3.27;;;2.50;;
16813;SDS011;8524;57.650;11.926;2023-01-19T00:09:27;2.90;;;2.50;;
16813;SDS011;8524;57.650;11.926;2023-01-19T00:11:57;4.97;;;2.70;;
16813;SDS011;8524;57.650;11.926;2023-01-19T00:14:24;3.80;;;2.53;;
16813;SDS011;8524;57.650;11.926;2023-01-19T00:16:51;4.53;;;2.40;;
16813;SDS011;8524;57.650;11.926;2023-01-19T00:19:18;2.50;;;2.30;;
16813;SDS011;8524;57.650;11.926;2023-01-19T00:21:47;4.73;;;2.70;;
16813;SDS011;8524;57.650;11.926;2023-01-19T00:24:14;4.03;;;2.53;;
16813;SDS011;8524;57.650;11.926;2023-01-19T00:26:41;3.73;;;2.70;;
16813;SDS011;8524;57.650;11.926;2023-01-19T00:29:09;4.57;;;2.67;;
16813;SDS011;8524;57.650;11.926;2023-01-19T00:31:36;5.80;;;2.80;;
16813;SDS011;8524;57.650;11.926;2023-01-19T00:34:03;4.53;;;3.00;;
16813;SDS011;8524;57.650;11.926;2023-01-19T00:36:31;5.10;;;3.30;;
16813;SDS011;8524;57.650;11.926;2023-01-19T00:39:00;3.80;;;2.80;;
16813;SDS011;8524;57.650;11.926;2023-01-19T00:41:27;4.80;;;3.40;;
16813;SDS011;8524;57.650;11.926;2023-01-19T00:44:08;3.57;;;3.17;;
16813;SDS011;8524;57.650;11.926;2023-01-19T00:46:35;3.70;;;3.00;;
16813;SDS011;8524;57.650;11.926;2023-01-19T00:49:02;3.20;;;2.90;;
16813;SDS011;8524;57.650;11.926;2023-01-19T00:51:30;4.10;;;3.23;;
16813;SDS011;8524;57.650;11.926;2023-01-19T00:53:57;5.53;;;3.60;;
16813;SDS011;8524;57.650;11.926;2023-01-19T00:56:28;4.53;;;3.17;;
16813;SDS011;8524;57.650;11.926;2023-01-19T00:58:55;4.63;;;3.00;;
16813;SDS011;8524;57.650;11.926;2023-01-19T01:01:22;3.80;;;3.17;;
16813;SDS011;8524;57.650;11.926;2023-01-19T01:03:50;5.10;;;3.57;;
16813;SDS011;8524;57.650;11.926;2023-01-19T01:06:17;4.67;;;3.43;;
16813;SDS011;8524;57.650;11.926;2023-01-19T01:08:44;5.87;;;3.17;;
16813;SDS011;8524;57.650;11.926;2023-01-19T01:11:13;4.27;;;3.87;;
16813;SDS011;8524;57.650;11.926;2023-01-19T01:13:40;5.03;;;3.87;;
16813;SDS011;8524;57.650;11.926;2023-01-19T01:16:07;6.73;;;4.93;;
16813;SDS011;8524;57.650;11.926;2023-01-19T01:18:34;7.30;;;4.23;;
16813;SDS011;8524;57.650;11.926;2023-01-19T01:21:01;5.80;;;4.33;;
16813;SDS011;8524;57.650;11.926;2023-01-19T01:23:29;5.60;;;4.33;;
16813;SDS011;8524;57.650;11.926;2023-01-19T01:25:56;6.13;;;4.00;;
16813;SDS011;8524;57.650;11.926;2023-01-19T01:28:25;5.77;;;4.30;;
16813;SDS011;8524;57.650;11.926;2023-01-19T01:30:52;5.17;;;4.53;;
16813;SDS011;8524;57.650;11.926;2023-01-19T01:33:19;4.90;;;4.40;;
16813;SDS011;8524;57.650;11.926;2023-01-19T01:35:47;6.17;;;4.87;;
16813;SDS011;8524;57.650;11.926;2023-01-19T01:38:14;6.57;;;4.83;;
16813;SDS011;8524;57.650;11.926;2023-01-19T01:40:41;6.87;;;5.10;;
16813;SDS011;8524;57.650;11.926;2023-01-19T01:43:09;6.30;;;4.83;;
16813;SDS011;8524;57.650;11.926;2023-01-19T01:45:38;5.80;;;4.37;;
16813;SDS011;8524;57.650;11.926;2023-01-19T01:48:07;6.17;;;4.67;;
16813;SDS011;8524;57.650;11.926;2023-01-19T01:50:37;5.67;;;4.83;;
16813;SDS011;8524;57.650;11.926;2023-01-19T01:53:29;6.10;;;4.60;;
16813;SDS011;8524;57.650;11.926;2023-01-19T01:55:57;6.20;;;5.13;;
16813;SDS011;8524;57.650;11.926;2023-01-19T01:58:27;6.20;;;4.33;;
16813;SDS011;8524;57.650;11.926;2023-01-19T02:00:58;8.33;;;5.57;;
16813;SDS011;8524;57.650;11.926;2023-01-19T02:03:42;7.57;;;6.00;;
16813;SDS011;8524;57.650;11.926;2023-01-19T02:06:09;8.20;;;5.20;;
16813;SDS011;8524;57.650;11.926;2023-01-19T02:08:41;8.33;;;5.63;;
16813;SDS011;8524;57.650;11.926;2023-01-19T02:11:30;7.57;;;5.27;;
16813;SDS011;8524;57.650;11.926;2023-01-19T02:14:15;8.80;;;5.63;;
16813;SDS011;8524;57.650;11.926;2023-01-19T02:16:44;7.03;;;5.60;;
16813;SDS011;8524;57.650;11.926;2023-01-19T02:19:12;6.03;;;5.43;;
16813;SDS011;8524;57.650;11.926;2023-01-19T02:21:44;7.33;;;5.73;;
16813;SDS011;8524;57.650;11.926;2023-01-19T02:24:18;9.87;;;6.40;;
16813;SDS011;8524;57.650;11.926;2023-01-19T02:26:46;8.60;;;5.80;;
16813;SDS011;8524;57.650;11.926;2023-01-19T02:29:15;8.47;;;6.50;;
16813;SDS011;8524;57.650;11.926;2023-01-19T02:31:43;8.77;;;6.17;;
16813;SDS011;8524;57.650;11.926;2023-01-19T02:34:13;7.57;;;5.50;;
16813;SDS011;8524;57.650;11.926;2023-01-19T02:36:43;6.43;;;5.63;;
16813;SDS011;8524;57.650;11.926;2023-01-19T02:39:14;6.73;;;5.77;;
16813;SDS011;8524;57.650;11.926;2023-01-19T02:41:48;7.87;;;6.33;;
16813;SDS011;8524;57.650;11.926;2023-01-19T02:44:18;12.80;;;7.70;;
16813;SDS011;8524;57.650;11.926;2023-01-19T02:46:47;9.20;;;6.47;;
16813;SDS011;8524;57.650;11.926;2023-01-19T02:49:14;11.03;;;6.37;;
16813;SDS011;8524;57.650;11.926;2023-01-19T02:51:41;10.00;;;6.80;;
16813;SDS011;8524;57.650;11.926;2023-01-19T02:54:13;10.27;;;7.30;;
16813;SDS011;8524;57.650;11.926;2023-01-19T02:57:15;7.50;;;6.70;;
16813;SDS011;8524;57.650;11.926;2023-01-19T02:59:54;9.60;;;6.93;;
16813;SDS011;8524;57.650;11.926;2023-01-19T03:02:30;10.27;;;6.90;;
16813;SDS011;8524;57.650;11.926;2023-01-19T03:05:19;9.60;;;6.70;;
16813;SDS011;8524;57.650;11.926;2023-01-19T03:07:57;9.10;;;7.07;;
16813;SDS011;8524;57.650;11.926;2023-01-19T03:10:30;10.00;;;7.30;;
16813;SDS011;8524;57.650;11.926;2023-01-19T03:13:07;12.60;;;8.33;;
16813;SDS011;8524;57.650;11.926;2023-01-19T03:15:39;10.57;;;7.70;;
16813;SDS011;8524;57.650;11.926;2023-01-19T03:18:13;8.47;;;7.50;;
16813;SDS011;8524;57.650;11.926;2023-01-19T03:20:44;11.67;;;7.90;;
16813;SDS011;8524;57.650;11.926;2023-01-19T03:23:14;11.10;;;8.03;;
16813;SDS011;8524;57.650;11.926;2023-01-19T03:25:43;9.97;;;7.40;;
16813;SDS011;8524;57.650;11.926;2023-01-19T03:28:15;11.23;;;8.80;;
16813;SDS011;8524;57.650;11.926;2023-01-19T03:30:45;11.27;;;8.93;;
16813;SDS011;8524;57.650;11.926;2023-01-19T03:33:18;10.90;;;8.70;;
16813;SDS011;8524;57.650;11.926;2023-01-19T03:35:51;12.43;;;8.80;;
16813;SDS011;8524;57.650;11.926;2023-01-19T03:38:25;12.47;;;9.13;;
16813;SDS011;8524;57.650;11.926;2023-01-19T03:40:54;13.13;;;9.33;;
16813;SDS011;8524;57.650;11.926;2023-01-19T03:43:26;11.00;;;8.43;;
16813;SDS011;8524;57.650;11.926;2023-01-19T03:45:54;9.20;;;8.10;;
16813;SDS011;8524;57.650;11.926;2023-01-19T03:48:23;10.83;;;8.33;;
16813;SDS011;8524;57.650;11.926;2023-01-19T03:50:51;11.67;;;9.33;;
16813;SDS011;8524;57.650;11.926;2023-01-19T03:53:20;12.83;;;9.03;;
16813;SDS011;8524;57.650;11.926;2023-01-19T03:55:49;11.17;;;8.70;;
16813;SDS011;8524;57.650;11.926;2023-01-19T03:58:18;14.83;;;9.63;;
16813;SDS011;8524;57.650;11.926;2023-01-19T04:00:47;10.97;;;8.40;;
16813;SDS011;8524;57.650;11.926;2023-01-19T04:03:15;11.10;;;9.40;;
16813;SDS011;8524;57.650;11.926;2023-01-19T04:05:43;13.03;;;9.37;;
16813;SDS011;8524;57.650;11.926;2023-01-19T04:08:11;13.97;;;9.83;;
16813;SDS011;8524;57.650;11.926;2023-01-19T04:10:41;13.83;;;10.03;;
16813;SDS011;8524;57.650;11.926;2023-01-19T04:13:08;13.30;;;9.43;;
16813;SDS011;8524;57.650;11.926;2023-01-19T04:15:35;15.13;;;10.83;;
16813;SDS011;8524;57.650;11.926;2023-01-19T04:18:04;13.37;;;10.10;;
16813;SDS011;8524;57.650;11.926;2023-01-19T04:20:31;11.27;;;9.43;;
16813;SDS011;8524;57.650;11.926;2023-01-19T04:22:58;12.87;;;9.80;;
16813;SDS011;8524;57.650;11.926;2023-01-19T04:25:26;11.37;;;9.30;;
16813;SDS011;8524;57.650;11.926;2023-01-19T04:27:53;12.67;;;9.70;;
16813;SDS011;8524;57.650;11.926;2023-01-19T04:30:22;11.67;;;8.90;;
16813;SDS011;8524;57.650;11.926;2023-01-19T04:32:49;9.90;;;8.80;;
16813;SDS011;8524;57.650;11.926;2023-01-19T04:35:19;13.40;;;9.83;;
16813;SDS011;8524;57.650;11.926;2023-01-19T04:37:46;13.77;;;10.23;;
16813;SDS011;8524;57.650;11.926;2023-01-19T04:40:13;12.83;;;10.00;;
16813;SDS011;8524;57.650;11.926;2023-01-19T04:42:41;13.70;;;10.90;;
16813;SDS011;8524;57.650;11.926;2023-01-19T04:45:10;12.53;;;9.87;;
16813;SDS011;8524;57.650;11.926;2023-01-19T04:47:37;16.90;;;11.13;;
16813;SDS011;8524;57.650;11.926;2023-01-19T04:50:05;12.20;;;9.83;;
16813;SDS011;8524;57.650;11.926;2023-01-19T04:52:34;14.57;;;10.67;;
16813;SDS011;8524;57.650;11.926;2023-01-19T04:55:02;11.87;;;9.33;;
16813;SDS011;8524;57.650;11.926;2023-01-19T04:57:29;13.80;;;10.33;;
16813;SDS011;8524;57.650;11.926;2023-01-19T04:59:56;16.17;;;12.13;;
16813;SDS011;8524;57.650;11.926;2023-01-19T05:02:24;14.87;;;12.17;;
16813;SDS011;8524;57.650;11.926;2023-01-19T05:04:51;13.83;;;11.13;;
16813;SDS011;8524;57.650;11.926;2023-01-19T05:07:18;15.97;;;11.63;;
16813;SDS011;8524;57.650;11.926;2023-01-19T05:09:46;16.13;;;11.87;;
16813;SDS011;8524;57.650;11.926;2023-01-19T05:12:13;15.20;;;11.13;;
16813;SDS011;8524;57.650;11.926;2023-01-19T05:14:40;12.40;;;10.93;;
16813;SDS011;8524;57.650;11.926;2023-01-19T05:17:07;18.57;;;11.33;;
16813;SDS011;8524;57.650;11.926;2023-01-19T05:19:34;14.50;;;10.10;;
16813;SDS011;8524;57.650;11.926;2023-01-19T05:22:01;17.87;;;11.83;;
16813;SDS011;8524;57.650;11.926;2023-01-19T05:24:29;14.30;;;11.60;;
16813;SDS011;8524;57.650;11.926;2023-01-19T05:26:58;13.60;;;10.60;;
16813;SDS011;8524;57.650;11.926;2023-01-19T05:29:25;12.03;;;9.80;;
16813;SDS011;8524;57.650;11.926;2023-01-19T05:31:52;14.77;;;12.48;;
16813;SDS011;8524;57.650;11.926;2023-01-19T05:34:19;13.90;;;10.63;;
16813;SDS011;8524;57.650;11.926;2023-01-19T05:36:46;14.10;;;10.30;;
16813;SDS011;8524;57.650;11.926;2023-01-19T05:39:13;10.63;;;9.27;;
16813;SDS011;8524;57.650;11.926;2023-01-19T05:41:40;14.37;;;10.67;;
16813;SDS011;8524;57.650;11.926;2023-01-19T05:44:10;13.13;;;10.63;;
16813;SDS011;8524;57.650;11.926;2023-01-19T05:46:37;15.43;;;10.70;;
16813;SDS011;8524;57.650;11.926;2023-01-19T05:49:05;13.73;;;9.93;;
16813;SDS011;8524;57.650;11.926;2023-01-19T05:51:32;13.47;;;10.43;;
16813;SDS011;8524;57.650;11.926;2023-01-19T05:54:02;15.13;;;11.10;;
16813;SDS011;8524;57.650;11.926;2023-01-19T05:56:29;13.57;;;10.07;;
16813;SDS011;8524;57.650;11.926;2023-01-19T05:58:57;14.10;;;11.30;;
16813;SDS011;8524;57.650;11.926;2023-01-19T06:01:25;15.83;;;10.87;;
16813;SDS011;8524;57.650;11.926;2023-01-19T06:03:52;13.50;;;10.07;;
16813;SDS011;8524;57.650;11.926;2023-01-19T06:06:20;13.93;;;10.80;;
16813;SDS011;8524;57.650;11.926;2023-01-19T06:08:47;17.60;;;11.83;;
16813;SDS011;8524;57.650;11.926;2023-01-19T06:11:14;13.90;;;10.17;;
16813;SDS011;8524;57.650;11.926;2023-01-19T06:13:41;13.83;;;10.37;;
16813;SDS011;8524;57.650;11.926;2023-01-19T06:16:08;14.20;;;9.83;;
16813;SDS011;8524;57.650;11.926;2023-01-19T06:18:37;12.67;;;9.53;;
16813;SDS011;8524;57.650;11.926;2023-01-19T06:21:04;13.03;;;10.07;;
16813;SDS011;8524;57.650;11.926;2023-01-19T06:23:32;15.77;;;10.67;;
16813;SDS011;8524;57.650;11.926;2023-01-19T06:26:00;12.43;;;9.23;;
16813;SDS011;8524;57.650;11.926;2023-01-19T06:28:28;14.60;;;9.97;;
16813;SDS011;8524;57.650;11.926;2023-01-19T06:30:55;13.23;;;9.43;;
16813;SDS011;8524;57.650;11.926;2023-01-19T06:33:22;11.93;;;9.50;;
16813;SDS011;8524;57.650;11.926;2023-01-19T06:35:51;13.50;;;10.30;;
16813;SDS011;8524;57.650;11.926;2023-01-19T06:38:18;11.13;;;9.10;;
16813;SDS011;8524;57.650;11.926;2023-01-19T06:40:50;12.50;;;9.67;;
16813;SDS011;8524;57.650;11.926;2023-01-19T06:43:18;12.17;;;9.60;;
16813;SDS011;8524;57.650;11.926;2023-01-19T06:45:45;13.90;;;9.90;;
16813;SDS011;8524;57.650;11.926;2023-01-19T06:48:13;15.30;;;10.07;;
16813;SDS011;8524;57.650;11.926;2023-01-19T06:50:40;12.73;;;9.67;;
16813;SDS011;8524;57.650;11.926;2023-01-19T06:53:11;17.57;;;12.03;;
16813;SDS011;8524;57.650;11.926;2023-01-19T06:55:38;16.97;;;10.20;;
16813;SDS011;8524;57.650;11.926;2023-01-19T06:58:05;12.60;;;10.43;;
16813;SDS011;8524;57.650;11.926;2023-01-19T07:00:32;14.73;;;10.50;;
16813;SDS011;8524;57.650;11.926;2023-01-19T07:02:59;12.50;;;9.43;;
16813;SDS011;8524;57.650;11.926;2023-01-19T07:05:26;11.33;;;9.27;;
16813;SDS011;8524;57.650;11.926;2023-01-19T07:07:54;13.67;;;9.20;;
16813;SDS011;8524;57.650;11.926;2023-01-19T07:10:23;11.87;;;9.10;;
16813;SDS011;8524;57.650;11.926;2023-01-19T07:12:50;15.07;;;9.13;;
16813;SDS011;8524;57.650;11.926;2023-01-19T07:15:18;11.70;;;8.73;;
16813;SDS011;8524;57.650;11.926;2023-01-19T07:17:46;11.50;;;8.90;;
16813;SDS011;8524;57.650;11.926;2023-01-19T07:20:13;11.27;;;8.70;;
16813;SDS011;8524;57.650;11.926;2023-01-19T07:22:41;10.03;;;8.40;;
16813;SDS011;8524;57.650;11.926;2023-01-19T07:25:09;11.10;;;8.97;;
16813;SDS011;8524;57.650;11.926;2023-01-19T07:27:38;13.17;;;8.60;;
16813;SDS011;8524;57.650;11.926;2023-01-19T07:30:06;11.77;;;8.37;;
16813;SDS011;8524;57.650;11.926;2023-01-19T07:32:34;11.03;;;8.07;;
16813;SDS011;8524;57.650;11.926;2023-01-19T07:35:01;11.67;;;8.10;;
16813;SDS011;8524;57.650;11.926;2023-01-19T07:37:28;10.60;;;8.70;;
16813;SDS011;8524;57.650;11.926;2023-01-19T07:39:55;12.47;;;8.57;;
16813;SDS011;8524;57.650;11.926;2023-01-19T07:42:22;13.13;;;8.80;;
16813;SDS011;8524;57.650;11.926;2023-01-19T07:44:50;13.67;;;9.07;;
16813;SDS011;8524;57.650;11.926;2023-01-19T07:47:17;12.23;;;8.63;;
16813;SDS011;8524;57.650;11.926;2023-01-19T07:49:44;9.90;;;8.47;;
16813;SDS011;8524;57.650;11.926;2023-01-19T07:52:11;9.77;;;8.33;;
16813;SDS011;8524;57.650;11.926;2023-01-19T07:54:38;11.00;;;7.57;;
16813;SDS011;8524;57.650;11.926;2023-01-19T07:57:06;11.73;;;8.73;;
16813;SDS011;8524;57.650;11.926;2023-01-19T07:59:33;10.70;;;8.13;;
16813;SDS011;8524;57.650;11.926;2023-01-19T08:02:01;13.67;;;8.50;;
16813;SDS011;8524;57.650;11.926;2023-01-19T08:04:28;10.83;;;8.20;;
16813;SDS011;8524;57.650;11.926;2023-01-19T08:06:55;10.73;;;7.70;;
16813;SDS011;8524;57.650;11.926;2023-01-19T08:09:22;10.87;;;8.47;;
16813;SDS011;8524;57.650;11.926;2023-01-19T08:11:50;9.83;;;7.90;;
16813;SDS011;8524;57.650;11.926;2023-01-19T08:14:17;12.17;;;7.93;;
16813;SDS011;8524;57.650;11.926;2023-01-19T08:16:44;8.30;;;7.17;;
16813;SDS011;8524;57.650;11.926;2023-01-19T08:19:12;11.50;;;8.03;;
16813;SDS011;8524;57.650;11.926;2023-01-19T08:21:39;9.77;;;7.40;;
16813;SDS011;8524;57.650;11.926;2023-01-19T08:24:09;9.27;;;7.07;;
16813;SDS011;8524;57.650;11.926;2023-01-19T08:26:43;7.60;;;6.70;;
16813;SDS011;8524;57.650;11.926;2023-01-19T08:29:10;9.37;;;7.13;;
16813;SDS011;8524;57.650;11.926;2023-01-19T08:31:37;8.67;;;7.23;;
16813;SDS011;8524;57.650;11.926;2023-01-19T08:34:04;10.03;;;6.77;;
16813;SDS011;8524;57.650;11.926;2023-01-19T08:36:34;9.27;;;7.20;;
16813;SDS011;8524;57.650;11.926;2023-01-19T08:39:01;7.43;;;6.60;;
16813;SDS011;8524;57.650;11.926;2023-01-19T08:41:28;7.70;;;6.27;;
16813;SDS011;8524;57.650;11.926;2023-01-19T08:43:55;9.87;;;7.00;;
16813;SDS011;8524;57.650;11.926;2023-01-19T08:46:22;9.23;;;6.53;;
16813;SDS011;8524;57.650;11.926;2023-01-19T08:48:50;10.10;;;7.82;;
16813;SDS011;8524;57.650;11.926;2023-01-19T08:51:17;9.37;;;6.70;;
16813;SDS011;8524;57.650;11.926;2023-01-19T08:53:48;8.63;;;6.03;;
16813;SDS011;8524;57.650;11.926;2023-01-19T08:56:15;7.70;;;5.97;;
16813;SDS011;8524;57.650;11.926;2023-01-19T08:58:43;11.20;;;7.23;;
16813;SDS011;8524;57.650;11.926;2023-01-19T09:01:11;13.53;;;6.63;;
16813;SDS011;8524;57.650;11.926;2023-01-19T09:03:40;7.70;;;6.90;;
16813;SDS011;8524;57.650;11.926;2023-01-19T09:06:08;7.83;;;6.23;;
16813;SDS011;8524;57.650;11.926;2023-01-19T09:08:37;10.30;;;6.53;;
16813;SDS011;8524;57.650;11.926;2023-01-19T09:11:07;9.53;;;6.57;;
16813;SDS011;8524;57.650;11.926;2023-01-19T09:13:36;7.50;;;6.23;;
16813;SDS011;8524;57.650;11.926;2023-01-19T09:16:03;7.87;;;5.70;;
16813;SDS011;8524;57.650;11.926;2023-01-19T09:18:33;9.13;;;6.10;;
16813;SDS011;8524;57.650;11.926;2023-01-19T09:21:00;7.73;;;6.23;;
16813;SDS011;8524;57.650;11.926;2023-01-19T09:23:28;9.73;;;6.83;;
16813;SDS011;8524;57.650;11.926;2023-01-19T09:25:56;7.37;;;5.67;;
16813;SDS011;8524;57.650;11.926;2023-01-19T09:28:26;7.23;;;6.33;;
16813;SDS011;8524;57.650;11.926;2023-01-19T09:30:54;8.03;;;6.17;;
16813;SDS011;8524;57.650;11.926;2023-01-19T09:33:21;8.33;;;6.10;;
16813;SDS011;8524;57.650;11.926;2023-01-19T09:35:49;7.43;;;6.37;;
16813;SDS011;8524;57.650;11.926;2023-01-19T09:38:17;7.57;;;6.77;;
16813;SDS011;8524;57.650;11.926;2023-01-19T09:40:47;7.90;;;6.47;;
16813;SDS011;8524;57.650;11.926;2023-01-19T09:43:18;7.47;;;6.33;;
16813;SDS011;8524;57.650;11.926;2023-01-19T09:45:56;8.90;;;6.40;;
16813;SDS011;8524;57.650;11.926;2023-01-19T09:48:34;8.47;;;6.40;;
16813;SDS011;8524;57.650;11.926;2023-01-19T09:51:11;8.03;;;6.47;;
16813;SDS011;8524;57.650;11.926;2023-01-19T09:53:44;7.10;;;6.20;;
16813;SDS011;8524;57.650;11.926;2023-01-19T09:56:17;8.57;;;6.67;;
16813;SDS011;8524;57.650;11.926;2023-01-19T09:58:45;7.70;;;6.90;;
16813;SDS011;8524;57.650;11.926;2023-01-19T10:01:18;9.17;;;6.97;;
16813;SDS011;8524;57.650;11.926;2023-01-19T10:04:06;8.03;;;6.40;;
16813;SDS011;8524;57.650;11.926;2023-01-19T10:06:42;9.03;;;7.03;;
16813;SDS011;8524;57.650;11.926;2023-01-19T10:09:11;7.83;;;7.03;;
16813;SDS011;8524;57.650;11.926;2023-01-19T10:11:45;8.93;;;7.33;;
16813;SDS011;8524;57.650;11.926;2023-01-19T10:14:19;7.13;;;5.90;;
16813;SDS011;8524;57.650;11.926;2023-01-19T10:16:55;8.17;;;7.37;;
16813;SDS011;8524;57.650;11.926;2023-01-19T10:19:31;8.83;;;7.30;;
16813;SDS011;8524;57.650;11.926;2023-01-19T10:22:02;10.07;;;7.80;;
16813;SDS011;8524;57.650;11.926;2023-01-19T10:24:40;10.87;;;8.10;;
16813;SDS011;8524;57.650;11.926;2023-01-19T10:27:19;8.77;;;7.37;;
16813;SDS011;8524;57.650;11.926;2023-01-19T10:29:49;12.67;;;8.40;;
16813;SDS011;8524;57.650;11.926;2023-01-19T10:32:25;8.77;;;7.10;;
16813;SDS011;8524;57.650;11.926;2023-01-19T10:34:54;11.60;;;7.27;;
16813;SDS011;8524;57.650;11.926;2023-01-19T10:37:26;8.03;;;6.93;;
16813;SDS011;8524;57.650;11.926;2023-01-19T10:39:56;9.10;;;8.20;;
16813;SDS011;8524;57.650;11.926;2023-01-19T10:42:28;9.53;;;7.70;;
16813;SDS011;8524;57.650;11.926;2023-01-19T10:44:55;9.97;;;8.33;;
16813;SDS011;8524;57.650;11.926;2023-01-19T10:47:25;10.10;;;7.83;;
16813;SDS011;8524;57.650;11.926;2023-01-19T10:49:57;10.10;;;7.97;;
16813;SDS011;8524;57.650;11.926;2023-01-19T10:52:26;16.93;;;8.67;;
16813;SDS011;8524;57.650;11.926;2023-01-19T10:54:57;9.93;;;8.17;;
16813;SDS011;8524;57.650;11.926;2023-01-19T10:57:27;11.40;;;9.43;;
16813;SDS011;8524;57.650;11.926;2023-01-19T10:59:56;10.20;;;8.60;;
16813;SDS011;8524;57.650;11.926;2023-01-19T11:02:25;11.23;;;9.43;;
16813;SDS011;8524;57.650;11.926;2023-01-19T11:04:55;13.87;;;9.20;;
16813;SDS011;8524;57.650;11.926;2023-01-19T11:07:26;11.63;;;8.50;;
16813;SDS011;8524;57.650;11.926;2023-01-19T11:12:51;12.37;;;8.63;;
16813;SDS011;8524;57.650;11.926;2023-01-19T11:15:22;11.80;;;8.57;;
16813;SDS011;8524;57.650;11.926;2023-01-19T11:17:54;13.90;;;9.63;;
16813;SDS011;8524;57.650;11.926;2023-01-19T11:20:21;13.73;;;10.03;;
16813;SDS011;8524;57.650;11.926;2023-01-19T11:23:02;13.57;;;9.43;;
16813;SDS011;8524;57.650;11.926;2023-01-19T11:25:32;12.83;;;9.07;;
16813;SDS011;8524;57.650;11.926;2023-01-19T11:28:01;13.95;;;11.10;;
16813;SDS011;8524;57.650;11.926;2023-01-19T11:30:29;12.70;;;9.77;;
16813;SDS011;8524;57.650;11.926;2023-01-19T11:32:57;12.23;;;9.10;;
16813;SDS011;8524;57.650;11.926;2023-01-19T11:35:32;11.77;;;10.57;;
16813;SDS011;8524;57.650;11.926;2023-01-19T11:38:13;12.60;;;9.60;;
16813;SDS011;8524;57.650;11.926;2023-01-19T11:40:51;11.93;;;9.87;;
16813;SDS011;8524;57.650;11.926;2023-01-19T11:43:20;11.97;;;10.00;;
16813;SDS011;8524;57.650;11.926;2023-01-19T11:45:49;12.37;;;9.70;;
16813;SDS011;8524;57.650;11.926;2023-01-19T11:48:22;13.33;;;9.63;;
16813;SDS011;8524;57.650;11.926;2023-01-19T11:50:53;13.20;;;10.00;;
16813;SDS011;8524;57.650;11.926;2023-01-19T11:53:23;14.53;;;10.53;;
16813;SDS011;8524;57.650;11.926;2023-01-19T11:55:55;11.57;;;9.83;;
16813;SDS011;8524;57.650;11.926;2023-01-19T11:58:24;12.17;;;9.63;;
16813;SDS011;8524;57.650;11.926;2023-01-19T12:00:53;11.07;;;9.37;;
16813;SDS011;8524;57.650;11.926;2023-01-19T12:03:26;12.40;;;10.20;;
16813;SDS011;8524;57.650;11.926;2023-01-19T12:05:56;12.90;;;10.40;;
16813;SDS011;8524;57.650;11.926;2023-01-19T12:08:28;10.57;;;8.77;;
16813;SDS011;8524;57.650;11.926;2023-01-19T12:10:58;12.70;;;9.23;;
16813;SDS011;8524;57.650;11.926;2023-01-19T12:13:26;13.00;;;9.73;;
16813;SDS011;8524;57.650;11.926;2023-01-19T12:15:55;11.63;;;9.20;;
16813;SDS011;8524;57.650;11.926;2023-01-19T12:18:29;10.00;;;8.43;;
16813;SDS011;8524;57.650;11.926;2023-01-19T12:21:00;9.83;;;8.80;;
16813;SDS011;8524;57.650;11.926;2023-01-19T12:23:30;10.43;;;8.13;;
16813;SDS011;8524;57.650;11.926;2023-01-19T12:26:12;11.63;;;8.90;;
16813;SDS011;8524;57.650;11.926;2023-01-19T12:28:52;10.00;;;8.73;;
16813;SDS011;8524;57.650;11.926;2023-01-19T12:31:23;10.27;;;8.47;;
16813;SDS011;8524;57.650;11.926;2023-01-19T12:33:51;9.93;;;8.47;;
16813;SDS011;8524;57.650;11.926;2023-01-19T12:39:05;8.73;;;7.73;;
16813;SDS011;8524;57.650;11.926;2023-01-19T12:41:38;9.47;;;8.47;;
16813;SDS011;8524;57.650;11.926;2023-01-19T12:46:58;9.00;;;7.67;;
16813;SDS011;8524;57.650;11.926;2023-01-19T12:49:32;9.43;;;8.43;;
16813;SDS011;8524;57.650;11.926;2023-01-19T12:52:12;11.10;;;9.57;;
16813;SDS011;8524;57.650;11.926;2023-01-19T12:54:52;10.57;;;9.10;;
16813;SDS011;8524;57.650;11.926;2023-01-19T12:57:24;9.20;;;8.23;;
16813;SDS011;8524;57.650;11.926;2023-01-19T12:59:57;10.47;;;9.43;;
16813;SDS011;8524;57.650;11.926;2023-01-19T13:05:22;8.87;;;7.93;;
16813;SDS011;8524;57.650;11.926;2023-01-19T13:08:12;9.00;;;8.10;;
16813;SDS011;8524;57.650;11.926;2023-01-19T13:20:03;10.77;;;9.37;;
16813;SDS011;8524;57.650;11.926;2023-01-19T13:25:45;9.97;;;8.97;;
16813;SDS011;8524;57.650;11.926;2023-01-19T13:28:16;9.87;;;8.87;;
16813;SDS011;8524;57.650;11.926;2023-01-19T13:30:55;9.67;;;8.63;;
16813;SDS011;8524;57.650;11.926;2023-01-19T13:33:25;10.27;;;9.27;;
16813;SDS011;8524;57.650;11.926;2023-01-19T13:35:55;11.60;;;9.90;;
16813;SDS011;8524;57.650;11.926;2023-01-19T13:38:24;10.70;;;8.67;;
16813;SDS011;8524;57.650;11.926;2023-01-19T13:40:54;13.57;;;10.53;;
16813;SDS011;8524;57.650;11.926;2023-01-19T13:43:26;14.57;;;13.13;;
16813;SDS011;8524;57.650;11.926;2023-01-19T13:45:57;12.77;;;11.00;;
16813;SDS011;8524;57.650;11.926;2023-01-19T13:48:26;11.43;;;10.17;;
16813;SDS011;8524;57.650;11.926;2023-01-19T13:51:00;15.73;;;12.57;;
16813;SDS011;8524;57.650;11.926;2023-01-19T13:53:29;13.33;;;9.63;;
16813;SDS011;8524;57.650;11.926;2023-01-19T13:56:17;13.17;;;9.33;;
16813;SDS011;8524;57.650;11.926;2023-01-19T13:58:57;12.63;;;10.57;;
16813;SDS011;8524;57.650;11.926;2023-01-19T14:01:31;10.67;;;9.17;;
16813;SDS011;8524;57.650;11.926;2023-01-19T14:03:58;10.77;;;9.30;;
16813;SDS011;8524;57.650;11.926;2023-01-19T14:06:30;11.67;;;9.93;;
16813;SDS011;8524;57.650;11.926;2023-01-19T14:09:07;12.60;;;10.07;;
16813;SDS011;8524;57.650;11.926;2023-01-19T14:11:42;10.80;;;9.53;;
16813;SDS011;8524;57.650;11.926;2023-01-19T14:14:23;11.57;;;9.60;;
16813;SDS011;8524;57.650;11.926;2023-01-19T14:16:51;11.77;;;9.30;;
16813;SDS011;8524;57.650;11.926;2023-01-19T14:19:18;13.57;;;9.53;;
16813;SDS011;8524;57.650;11.926;2023-01-19T14:21:45;11.53;;;10.33;;
16813;SDS011;8524;57.650;11.926;2023-01-19T14:24:31;11.60;;;9.53;;
16813;SDS011;8524;57.650;11.926;2023-01-19T14:27:15;13.47;;;9.83;;
16813;SDS011;8524;57.650;11.926;2023-01-19T14:29:48;13.90;;;9.63;;
16813;SDS011;8524;57.650;11.926;2023-01-19T14:32:18;11.00;;;9.27;;
16813;SDS011;8524;57.650;11.926;2023-01-19T14:34:47;12.73;;;9.20;;
16813;SDS011;8524;57.650;11.926;2023-01-19T14:37:16;10.80;;;9.70;;
16813;SDS011;8524;57.650;11.926;2023-01-19T14:39:46;11.37;;;9.97;;
16813;SDS011;8524;57.650;11.926;2023-01-19T14:42:17;11.03;;;9.77;;
16813;SDS011;8524;57.650;11.926;2023-01-19T14:44:48;12.30;;;9.77;;
16813;SDS011;8524;57.650;11.926;2023-01-19T14:50:07;10.33;;;9.10;;
16813;SDS011;8524;57.650;11.926;2023-01-19T14:52:50;12.00;;;9.17;;
16813;SDS011;8524;57.650;11.926;2023-01-19T14:55:20;11.30;;;9.30;;
16813;SDS011;8524;57.650;11.926;2023-01-19T14:58:00;10.67;;;9.47;;
16813;SDS011;8524;57.650;11.926;2023-01-19T15:00:27;10.20;;;9.07;;
16813;SDS011;8524;57.650;11.926;2023-01-19T15:02:54;10.03;;;8.63;;
16813;SDS011;8524;57.650;11.926;2023-01-19T15:05:21;9.73;;;8.73;;
16813;SDS011;8524;57.650;11.926;2023-01-19T15:07:48;11.23;;;10.03;;
16813;SDS011;8524;57.650;11.926;2023-01-19T15:10:18;12.17;;;9.93;;
16813;SDS011;8524;57.650;11.926;2023-01-19T15:12:46;10.00;;;9.00;;
16813;SDS011;8524;57.650;11.926;2023-01-19T15:15:17;10.73;;;9.60;;
16813;SDS011;8524;57.650;11.926;2023-01-19T15:17:47;10.30;;;8.60;;
16813;SDS011;8524;57.650;11.926;2023-01-19T15:20:14;10.70;;;9.13;;
16813;SDS011;8524;57.650;11.926;2023-01-19T15:22:43;12.13;;;9.43;;